Time,TemperatureF,DewpointF,PressureIn,WindDirection,WindDirectionDegrees,WindSpeedMPH,WindSpeedGustMPH,Humidity,HourlyPrecipIn,Conditions,Clouds,dailyrainin,SoftwareType,DateUTC
2013-04-30 00:14:00,55.9,49.2,30.12,North,0,0.0,0.0,78,0.00,,OVC019,0.00,VWS V14.00,2013-04-30 04:14:00,
2013-04-30 00:29:00,55.8,49.0,30.12,North,0,0.0,0.0,78,0.00,,OVC019,0.00,VWS V14.00,2013-04-30 04:29:00,
2013-04-30 00:44:00,55.6,49.2,30.12,North,0,0.0,0.0,79,0.00,,OVC019,0.00,VWS V14.00,2013-04-30 04:44:00,
2013-04-30 00:59:00,55.6,48.8,30.12,North,0,0.0,0.0,78,0.00,,OVC019,0.00,VWS V14.00,2013-04-30 04:59:00,
2013-04-30 01:14:00,55.6,48.8,30.12,North,0,0.0,0.0,78,0.00,,OVC015,0.00,VWS V14.00,2013-04-30 05:14:00,
2013-04-30 01:29:00,55.6,48.8,30.12,North,0,0.0,0.0,78,0.00,,OVC015,0.00,VWS V14.00,2013-04-30 05:29:00,
2013-04-30 01:44:00,55.6,48.2,30.12,North,0,0.0,0.0,76,0.00,,OVC015,0.00,VWS V14.00,2013-04-30 05:44:00,
2013-04-30 01:59:00,55.6,48.2,30.12,North,0,0.0,0.0,76,0.00,,OVC015,0.00,VWS V14.00,2013-04-30 05:59:00,
2013-04-30 02:14:00,55.4,47.6,30.12,North,0,0.0,0.0,75,0.00,,OVC017,0.00,VWS V14.00,2013-04-30 06:14:00,
2013-04-30 02:29:00,55.6,47.8,30.12,North,0,0.0,0.0,75,0.00,,OVC017,0.00,VWS V14.00,2013-04-30 06:29:00,
2013-04-30 02:45:00,55.4,47.3,30.12,North,0,0.0,0.0,74,0.00,,OVC017,0.00,VWS V14.00,2013-04-30 06:45:00,
2013-04-30 02:59:00,55.2,47.5,30.12,North,0,0.0,0.0,75,0.00,,OVC017,0.00,VWS V14.00,2013-04-30 06:59:00,
2013-04-30 03:15:00,55.2,47.1,30.12,North,0,0.0,0.0,74,0.00,,OVC015,0.00,VWS V14.00,2013-04-30 07:15:00,
2013-04-30 03:30:00,54.9,46.7,30.12,North,0,0.0,0.0,74,0.00,,OVC015,0.00,VWS V14.00,2013-04-30 07:30:00,
2013-04-30 03:45:00,54.7,46.6,30.12,North,0,0.0,0.0,74,0.00,,OVC015,0.00,VWS V14.00,2013-04-30 07:45:00,
2013-04-30 04:00:00,54.9,47.1,30.12,North,0,0.0,0.0,75,0.00,,OVC015,0.00,VWS V14.00,2013-04-30 08:00:00,
2013-04-30 04:15:00,54.9,47.1,30.12,North,0,0.0,0.0,75,0.00,,OVC013,0.00,VWS V14.00,2013-04-30 08:15:00,
2013-04-30 04:30:00,54.9,47.1,30.15,North,0,0.0,0.0,75,0.00,,OVC013,0.00,VWS V14.00,2013-04-30 08:30:00,
2013-04-30 04:45:00,54.9,47.1,30.15,North,0,0.0,0.0,75,0.00,,OVC013,0.00,VWS V14.00,2013-04-30 08:45:00,
2013-04-30 05:00:00,54.9,47.1,30.15,North,0,0.0,0.0,75,0.00,,OVC013,0.00,VWS V14.00,2013-04-30 09:00:00,
2013-04-30 05:15:00,54.7,46.9,30.15,North,0,0.0,0.0,75,0.00,,OVC015,0.00,VWS V14.00,2013-04-30 09:15:00,
2013-04-30 05:30:00,54.7,47.3,30.15,North,0,0.0,0.0,76,0.00,,OVC015,0.00,VWS V14.00,2013-04-30 09:30:00,
2013-04-30 05:45:00,54.7,47.3,30.15,North,0,0.0,0.0,76,0.00,,OVC015,0.00,VWS V14.00,2013-04-30 09:45:00,
2013-04-30 06:00:00,54.5,47.1,30.15,North,0,0.0,0.0,76,0.00,,,0.00,VWS V14.00,2013-04-30 10:00:00,
2013-04-30 06:15:00,54.5,47.1,30.15,North,0,0.0,0.0,76,0.00,,,0.00,VWS V14.00,2013-04-30 10:15:00,
2013-04-30 06:30:00,54.5,47.5,30.18,North,0,0.0,0.0,77,0.00,,,0.00,VWS V14.00,2013-04-30 10:30:00,
2013-04-30 06:45:00,54.7,47.6,30.18,North,0,0.0,0.0,77,0.00,,OVC035,0.00,VWS V14.00,2013-04-30 10:45:00,
2013-04-30 07:00:00,54.7,47.6,30.18,North,0,0.0,0.0,77,0.00,,OVC035,0.00,VWS V14.00,2013-04-30 11:00:00,
2013-04-30 07:15:00,54.7,47.6,30.18,North,0,0.0,0.0,77,0.00,,OVC035,0.00,VWS V14.00,2013-04-30 11:15:00,
2013-04-30 07:30:00,54.5,47.5,30.18,North,0,0.0,0.0,77,0.00,,OVC035,0.00,VWS V14.00,2013-04-30 11:30:00,
2013-04-30 07:44:00,54.7,48.0,30.18,North,0,0.0,0.0,78,0.00,,OVC035,0.00,VWS V14.00,2013-04-30 11:44:00,
2013-04-30 07:59:00,54.9,48.5,30.21,North,0,0.0,0.0,79,0.00,,,0.00,VWS V14.00,2013-04-30 11:59:00,
2013-04-30 08:14:00,55.2,49.2,30.21,North,0,0.0,0.0,80,0.00,,,0.00,VWS V14.00,2013-04-30 12:14:00,
2013-04-30 08:30:00,55.4,49.3,30.21,North,0,0.0,0.0,80,0.00,,,0.00,VWS V14.00,2013-04-30 12:30:00,
2013-04-30 08:44:00,55.4,49.7,30.21,North,0,0.0,0.0,81,0.00,,,0.00,VWS V14.00,2013-04-30 12:44:00,
2013-04-30 08:59:00,55.6,50.2,30.21,North,0,0.0,0.0,82,0.00,,,0.00,VWS V14.00,2013-04-30 12:59:00,
2013-04-30 09:14:00,56.1,51.0,30.21,North,0,0.0,0.0,83,0.00,,OVC013,0.00,VWS V14.00,2013-04-30 13:14:00,
2013-04-30 09:29:00,55.9,50.9,30.21,North,0,0.0,0.0,83,0.00,,OVC013,0.00,VWS V14.00,2013-04-30 13:29:00,
2013-04-30 09:44:00,56.1,51.0,30.21,North,0,0.0,0.0,83,0.00,,OVC013,0.00,VWS V14.00,2013-04-30 13:44:00,
2013-04-30 09:59:00,56.5,51.7,30.21,North,0,0.0,0.0,84,0.00,,OVC013,0.00,VWS V14.00,2013-04-30 13:59:00,
2013-04-30 10:14:00,56.7,51.9,30.21,North,0,0.0,0.0,84,0.00,,OVC016,0.00,VWS V14.00,2013-04-30 14:14:00,
2013-04-30 10:30:00,57.0,52.2,30.21,North,0,0.0,0.0,84,0.00,,OVC016,0.00,VWS V14.00,2013-04-30 14:30:00,
2013-04-30 10:44:00,56.8,51.7,30.21,North,0,0.0,0.0,83,0.00,,OVC016,0.00,VWS V14.00,2013-04-30 14:44:00,
2013-04-30 11:00:00,56.8,50.1,30.21,North,0,0.0,0.0,78,0.00,,OVC016,0.00,VWS V14.00,2013-04-30 15:00:00,
2013-04-30 11:14:00,57.7,50.9,30.21,North,0,0.0,0.0,78,0.00,,OVC016,0.00,VWS V14.00,2013-04-30 15:14:00,
2013-04-30 11:29:00,58.1,49.1,30.21,North,0,0.0,0.0,72,0.00,,OVC016,0.00,VWS V14.00,2013-04-30 15:29:00,
2013-04-30 11:44:00,58.5,44.2,30.21,North,0,0.0,0.0,59,0.00,,OVC016,0.00,VWS V14.00,2013-04-30 15:44:00,
2013-04-30 11:59:00,60.4,39.0,30.24,North,0,0.0,0.0,45,0.00,,OVC016,0.00,VWS V14.00,2013-04-30 15:59:00,
2013-04-30 12:14:00,60.6,34.2,30.21,North,0,0.0,0.0,37,0.00,,OVC018,0.00,VWS V14.00,2013-04-30 16:14:00,
2013-04-30 12:29:00,60.3,33.2,30.21,North,0,0.0,0.0,36,0.00,,OVC018,0.00,VWS V14.00,2013-04-30 16:29:00,
2013-04-30 12:44:00,61.9,34.0,30.21,North,0,0.0,0.0,35,0.00,,OVC018,0.00,VWS V14.00,2013-04-30 16:44:00,
2013-04-30 12:59:00,62.2,32.8,30.21,North,0,0.0,0.0,33,0.00,,OVC018,0.00,VWS V14.00,2013-04-30 16:59:00,
2013-04-30 13:15:00,62.6,31.6,30.21,North,0,0.0,0.0,31,0.00,,BKN026,0.00,VWS V14.00,2013-04-30 17:15:00,
2013-04-30 13:29:00,63.9,30.1,30.21,North,0,0.0,0.0,28,0.00,,BKN026,0.00,VWS V14.00,2013-04-30 17:29:00,
2013-04-30 13:44:00,63.3,29.7,30.21,North,0,0.0,0.0,28,0.00,,BKN026,0.00,VWS V14.00,2013-04-30 17:44:00,
2013-04-30 13:59:00,63.9,30.1,30.21,North,0,0.0,0.0,28,0.00,,BKN026,0.00,VWS V14.00,2013-04-30 17:59:00,
2013-04-30 14:14:00,64.6,29.9,30.21,North,0,0.0,0.0,27,0.00,,OVC030,0.00,VWS V14.00,2013-04-30 18:14:00,
2013-04-30 14:29:00,64.0,28.5,30.21,North,0,0.0,0.0,26,0.00,,OVC030,0.00,VWS V14.00,2013-04-30 18:29:00,
2013-04-30 14:44:00,64.6,29.0,30.21,North,0,0.0,0.0,26,0.00,,OVC030,0.00,VWS V14.00,2013-04-30 18:44:00,
2013-04-30 14:59:00,64.6,28.0,30.21,North,0,0.0,0.0,25,0.00,,OVC030,0.00,VWS V14.00,2013-04-30 18:59:00,
2013-04-30 15:14:00,64.4,27.8,30.24,North,0,0.0,0.0,25,0.00,,OVC035,0.00,VWS V14.00,2013-04-30 19:14:00,
2013-04-30 15:29:00,62.8,28.3,30.24,North,0,0.0,0.0,27,0.00,,OVC035,0.00,VWS V14.00,2013-04-30 19:29:00,
2013-04-30 15:44:00,63.0,30.2,30.24,North,0,0.0,0.0,29,0.00,,OVC035,0.00,VWS V14.00,2013-04-30 19:44:00,
2013-04-30 15:59:00,64.2,31.3,30.24,North,0,0.0,0.0,29,0.00,,OVC035,0.00,VWS V14.00,2013-04-30 19:59:00,
2013-04-30 16:14:00,64.4,29.7,30.24,North,0,0.0,0.0,27,0.00,,OVC039,0.00,VWS V14.00,2013-04-30 20:14:00,
2013-04-30 16:29:00,63.9,30.1,30.24,North,0,0.0,0.0,28,0.00,,OVC039,0.00,VWS V14.00,2013-04-30 20:29:00,
2013-04-30 16:45:00,63.3,32.2,30.21,North,0,0.0,0.0,31,0.00,,OVC039,0.00,VWS V14.00,2013-04-30 20:45:00,
2013-04-30 16:59:00,63.1,33.6,30.24,North,0,0.0,0.0,33,0.00,,OVC039,0.00,VWS V14.00,2013-04-30 20:59:00,
2013-04-30 17:15:00,63.3,33.8,30.24,North,0,0.0,0.0,33,0.00,,OVC060,0.00,VWS V14.00,2013-04-30 21:15:00,
2013-04-30 17:30:00,63.5,32.3,30.24,North,0,0.0,0.0,31,0.00,,OVC060,0.00,VWS V14.00,2013-04-30 21:30:00,
2013-04-30 17:45:00,63.9,32.7,30.24,North,0,0.0,0.0,31,0.00,,OVC060,0.00,VWS V14.00,2013-04-30 21:45:00,
2013-04-30 18:00:00,64.8,32.6,30.24,North,0,0.0,0.0,30,0.00,,OVC045,0.00,VWS V14.00,2013-04-30 22:00:00,
2013-04-30 18:15:00,66.2,30.3,30.24,North,0,0.0,0.0,26,0.00,,OVC045,0.00,VWS V14.00,2013-04-30 22:15:00,
2013-04-30 18:30:00,65.7,28.9,30.24,North,0,0.0,0.0,25,0.00,,OVC045,0.00,VWS V14.00,2013-04-30 22:30:00,
2013-04-30 18:45:00,64.9,30.2,30.24,North,0,0.0,0.0,27,0.00,,OVC045,0.00,VWS V14.00,2013-04-30 22:45:00,
2013-04-30 19:00:00,64.9,29.3,30.24,North,0,0.0,0.0,26,0.00,,OVC055,0.00,VWS V14.00,2013-04-30 23:00:00,
2013-04-30 19:15:00,63.3,30.5,30.21,North,0,0.0,0.0,29,0.00,,OVC055,0.00,VWS V14.00,2013-04-30 23:15:00,
2013-04-30 19:30:00,62.8,30.9,30.21,North,0,0.0,0.0,30,0.00,,OVC055,0.00,VWS V14.00,2013-04-30 23:30:00,
2013-04-30 19:45:00,62.2,32.8,30.24,North,0,0.0,0.0,33,0.00,,OVC055,0.00,VWS V14.00,2013-04-30 23:45:00,
2013-04-30 20:00:00,61.3,33.5,30.21,North,0,0.0,0.0,35,0.00,,OVC050,0.00,VWS V14.00,2013-05-01 00:00:00,
2013-04-30 20:15:00,60.6,34.9,30.21,North,0,0.0,0.0,38,0.00,,OVC050,0.00,VWS V14.00,2013-05-01 00:15:00,
2013-04-30 20:30:00,60.1,35.1,30.21,North,0,0.0,0.0,39,0.00,,OVC050,0.00,VWS V14.00,2013-05-01 00:30:00,
2013-04-30 20:45:00,59.7,35.4,30.21,North,0,0.0,0.0,40,0.00,,OVC050,0.00,VWS V14.00,2013-05-01 00:45:00,
2013-04-30 21:00:00,59.0,39.4,30.24,North,0,0.0,0.0,48,0.00,,OVC050,0.00,VWS V14.00,2013-05-01 01:00:00,
2013-04-30 21:15:00,58.1,39.1,30.24,North,0,0.0,0.0,49,0.00,,OVC050,0.00,VWS V14.00,2013-05-01 01:15:00,
2013-04-30 21:30:00,56.8,39.4,30.24,North,0,0.0,0.0,52,0.00,,OVC050,0.00,VWS V14.00,2013-05-01 01:30:00,
2013-04-30 21:45:00,56.3,41.7,30.24,North,0,0.0,0.0,58,0.00,,CLR,0.00,VWS V14.00,2013-05-01 01:45:00,
2013-04-30 22:00:00,54.9,40.4,30.24,North,0,0.0,0.0,58,0.00,,CLR,0.00,VWS V14.00,2013-05-01 02:00:00,
2013-04-30 22:15:00,54.3,41.2,30.27,North,0,0.0,0.0,61,0.00,,CLR,0.00,VWS V14.00,2013-05-01 02:15:00,
2013-04-30 22:30:00,53.8,41.9,30.27,North,0,0.0,0.0,64,0.00,,CLR,0.00,VWS V14.00,2013-05-01 02:30:00,
2013-04-30 22:45:00,53.8,43.1,30.27,North,0,0.0,0.0,67,0.00,,CLR,0.00,VWS V14.00,2013-05-01 02:45:00,
2013-04-30 23:00:00,53.4,42.8,30.27,North,0,0.0,0.0,67,0.00,,CLR,0.00,VWS V14.00,2013-05-01 03:00:00,
2013-04-30 23:15:00,53.8,42.3,30.27,North,0,0.0,0.0,65,0.00,,CLR,0.00,VWS V14.00,2013-05-01 03:15:00,
2013-04-30 23:30:00,53.6,38.8,30.27,North,0,0.0,0.0,57,0.00,,CLR,0.00,VWS V14.00,2013-05-01 03:30:00,
2013-04-30 23:45:00,54.3,31.7,30.27,North,0,0.0,0.0,42,0.00,,CLR,0.00,VWS V14.00,2013-05-01 03:45:00,